Vernon Hills, IL (60061)

7:29 AM CDT on April 18, 2015 (GMT -0500)
Deerpath | | Change Station
CLOSE
Current Station
Personal Weather Station
Location: Vernon Hills, IL
Elevation: 690 ft
Nearby Weather Stations

Elev 690 ft 42.23 °N, 87.96 °W | Updated 7 seconds ago

Partly Cloudy
Partly Cloudy
55.4 °F
Feels Like 55.4 °F
N
0.0
Wind Variable Wind from NE
Gusts 0.0 mph

Today
High -- | Low -- °F
--% Chance of Precip.
Yesterday
High -- | Low -- °F
Precip. -- in
6:06 AM 7:36 PM
Waning Crescent, 0% visible
Pressure 30.06 in
Visibility 8.0 miles
Clouds Few 8000 ft
Dew Point 51 °F
Humidity 84%
Rainfall 0.00 in
Snow Depth Not available.
UV 1.0 out of 12
Pollen 10.10 out of 12
Air Quality Not available.
Flu Activity Regional
METAR KPWK 181152Z 00000KT 8SM FEW080 11/08 A3006 RMK AO2 SLP178 T01060078 10139 20094 53012

More Conditions Fewer Conditions

Pressure 30.06 in
Visibility 8.0 miles
Clouds Few 8000 ft
Dew Point 51 °F
Humidity 84%
Rainfall 0.00 in
Snow Depth Not available.
UV 1.0 out of 12
Pollen 10.10 out of 12
Air Quality Not available.
Flu Activity Regional
METAR KPWK 181152Z 00000KT 8SM FEW080 11/08 A3006 RMK AO2 SLP178 T01060078 10139 20094 53012

More Conditions Fewer Conditions

10-Day Weather Forecast

Almanac

Astronomy

Apr. 18, 2015 Rise Set
Actual Time
Civil Twilight
Nautical Twilight
Astronomical Twilight
Moon
Length of Visible Light
Length of Day
Tomorrow will be .
, % of the Moon is Illuminated

Today's Extremes

State Highs State Lows

Community

WunderPhotos

Upload Photos

1,814,375 photos uploaded!

WunderBlogs® & News

Nearby

Air Quality

  Air Quality AQ Index Pollutant
Not available.

Snow Depth

Station Depth Elevation

Earthquake Activity

City Distance Mag. Time & Date
Minimum magnitude displayed is 2.5.

Coastal Water Temperatures

Place Temperature

Stations

Nearby Weather Stations

Station Location Temp. Windchill Dew Point Humidity Wind Precip. Elev Updated Type